createdAt,value
2023-03-18T00:00:47.479Z,1006.50
2023-03-18T00:01:47.478Z,1006.52
2023-03-18T00:02:47.477Z,1006.51
2023-03-18T00:03:47.506Z,1006.43
2023-03-18T00:04:47.442Z,1006.42
2023-03-18T00:05:47.496Z,1006.46
2023-03-18T00:06:47.433Z,1006.49
2023-03-18T00:07:47.397Z,1006.47
2023-03-18T00:08:47.415Z,1006.47
2023-03-18T00:09:47.407Z,1006.62
2023-03-18T00:10:47.383Z,1006.54
2023-03-18T00:11:47.386Z,1006.51
2023-03-18T00:12:47.334Z,1006.52
2023-03-18T00:13:47.372Z,1006.55
2023-03-18T00:14:47.287Z,1006.59
2023-03-18T00:15:47.335Z,1006.64
2023-03-18T00:16:47.290Z,1006.64
2023-03-18T00:17:47.335Z,1006.64
2023-03-18T00:18:47.293Z,1006.64
2023-03-18T00:19:47.245Z,1006.68
2023-03-18T00:20:47.254Z,1006.65
2023-03-18T00:21:47.273Z,1006.64
2023-03-18T00:22:47.230Z,1006.65
2023-03-18T00:23:47.239Z,1006.63
2023-03-18T00:24:47.168Z,1006.61
2023-03-18T00:25:47.179Z,1006.69
2023-03-18T00:26:54.248Z,1006.69
2023-03-18T00:27:47.153Z,1006.68
2023-03-18T00:28:47.108Z,1006.63
2023-03-18T00:29:47.874Z,1006.65
2023-03-18T00:30:47.112Z,1006.65
2023-03-18T00:31:47.078Z,1006.62
2023-03-18T00:32:47.221Z,1006.58
2023-03-18T00:33:47.049Z,1006.57
2023-03-18T00:34:47.077Z,1006.57
2023-03-18T00:35:47.095Z,1006.53
2023-03-18T00:36:47.073Z,1006.54
2023-03-18T00:37:47.006Z,1006.52
2023-03-18T00:38:46.974Z,1006.47
2023-03-18T00:39:46.989Z,1006.46
2023-03-18T00:40:46.991Z,1006.38
2023-03-18T00:41:46.983Z,1006.39
2023-03-18T00:42:46.924Z,1006.33
2023-03-18T00:43:47.230Z,1006.36
2023-03-18T00:44:46.955Z,1006.36
2023-03-18T00:45:46.930Z,1006.30
2023-03-18T00:46:46.977Z,1006.35
2023-03-18T00:47:46.906Z,1006.42
2023-03-18T00:48:46.858Z,1006.47
2023-03-18T00:49:46.860Z,1006.50
2023-03-18T00:50:46.855Z,1006.54
2023-03-18T00:51:46.826Z,1006.50
2023-03-18T00:52:46.836Z,1006.51
2023-03-18T00:53:46.822Z,1006.52
2023-03-18T00:54:46.794Z,1006.49
2023-03-18T00:55:46.763Z,1006.51
2023-03-18T00:56:46.758Z,1006.53
2023-03-18T00:57:46.736Z,1006.53
2023-03-18T00:58:46.732Z,1006.57
2023-03-18T00:59:46.748Z,1006.60
2023-03-18T01:00:46.811Z,1006.64
2023-03-18T01:01:46.770Z,1006.65
2023-03-18T01:02:46.682Z,1006.65
2023-03-18T01:03:46.664Z,1006.62
2023-03-18T01:04:46.647Z,1006.64
2023-03-18T01:05:46.683Z,1006.57
2023-03-18T01:06:46.635Z,1006.50
2023-03-18T01:07:46.641Z,1006.43
2023-03-18T01:08:46.625Z,1006.45
2023-03-18T01:09:46.608Z,1006.46
2023-03-18T01:10:46.582Z,1006.45
2023-03-18T01:11:46.554Z,1006.40
2023-03-18T01:12:46.571Z,1006.41
2023-03-18T01:13:46.546Z,1006.37
2023-03-18T01:14:46.515Z,1006.48
2023-03-18T01:15:46.529Z,1006.50
2023-03-18T01:16:46.563Z,1006.53
2023-03-18T01:17:46.536Z,1006.56
2023-03-18T01:18:46.448Z,1006.52
2023-03-18T01:19:46.499Z,1006.47
2023-03-18T01:20:46.469Z,1006.44
2023-03-18T01:21:46.427Z,1006.34
2023-03-18T01:22:46.444Z,1006.44
2023-03-18T01:23:46.399Z,1006.43
2023-03-18T01:24:46.366Z,1006.38
2023-03-18T01:25:46.385Z,1006.48
2023-03-18T01:26:46.342Z,1006.55
2023-03-18T01:27:46.344Z,1006.50
2023-03-18T01:28:46.345Z,1006.48
2023-03-18T01:29:46.422Z,1006.52
2023-03-18T01:30:46.302Z,1006.54
2023-03-18T01:31:46.339Z,1006.51
2023-03-18T01:32:46.307Z,1006.57
2023-03-18T01:33:46.273Z,1006.51
2023-03-18T01:34:46.280Z,1006.48
2023-03-18T01:35:46.295Z,1006.50
2023-03-18T01:36:46.243Z,1006.40
2023-03-18T01:37:46.213Z,1006.47
2023-03-18T01:38:46.194Z,1006.47
2023-03-18T01:39:46.188Z,1006.50
2023-03-18T01:40:46.179Z,1006.47
2023-03-18T01:41:46.197Z,1006.52
2023-03-18T01:42:46.133Z,1006.51
2023-03-18T01:43:46.155Z,1006.46
2023-03-18T01:44:46.116Z,1006.42
2023-03-18T01:45:46.220Z,1006.41
2023-03-18T01:46:46.089Z,1006.44
2023-03-18T01:47:46.092Z,1006.35
2023-03-18T01:48:46.053Z,1006.29
2023-03-18T01:49:46.083Z,1006.30
2023-03-18T01:50:46.072Z,1006.25
2023-03-18T01:51:46.025Z,1006.36
2023-03-18T01:52:46.022Z,1006.26
2023-03-18T01:53:46.040Z,1006.24
2023-03-18T01:54:46.004Z,1006.36
2023-03-18T01:55:46.029Z,1006.27
2023-03-18T01:56:45.948Z,1006.24
2023-03-18T01:57:45.983Z,1006.18
2023-03-18T01:58:45.943Z,1006.14
2023-03-18T01:59:45.948Z,1006.13
2023-03-18T02:00:46.024Z,1006.12
2023-03-18T02:01:45.926Z,1006.17
2023-03-18T02:02:45.902Z,1006.11
2023-03-18T02:03:51.128Z,1006.15
2023-03-18T02:04:45.892Z,1006.12
2023-03-18T02:05:45.832Z,1006.16
2023-03-18T02:06:45.889Z,1006.10
2023-03-18T02:07:45.819Z,1006.12
2023-03-18T02:08:45.863Z,1006.16
2023-03-18T02:09:45.793Z,1006.20
2023-03-18T02:10:45.807Z,1006.26
2023-03-18T02:11:45.781Z,1006.30
2023-03-18T02:12:45.800Z,1006.33
2023-03-18T02:13:45.721Z,1006.36
2023-03-18T02:14:45.722Z,1006.30
2023-03-18T02:15:45.702Z,1006.33
2023-03-18T02:16:45.814Z,1006.34
2023-03-18T02:17:45.673Z,1006.33
2023-03-18T02:18:45.726Z,1006.30
2023-03-18T02:19:45.672Z,1006.31
2023-03-18T02:20:45.649Z,1006.38
2023-03-18T02:21:45.634Z,1006.42
2023-03-18T02:22:45.623Z,1006.40
2023-03-18T02:23:45.618Z,1006.41
2023-03-18T02:24:45.650Z,1006.39
2023-03-18T02:25:45.581Z,1006.36
2023-03-18T02:26:45.599Z,1006.34
2023-03-18T02:27:45.572Z,1006.37
2023-03-18T02:28:45.540Z,1006.29
2023-03-18T02:29:45.531Z,1006.28
2023-03-18T02:30:45.549Z,1006.22
2023-03-18T02:31:45.520Z,1006.15
2023-03-18T02:32:45.546Z,1006.15
2023-03-18T02:33:45.469Z,1006.19
2023-03-18T02:34:45.477Z,1006.20
2023-03-18T02:35:45.524Z,1006.20
2023-03-18T02:36:45.448Z,1006.19
2023-03-18T02:37:45.436Z,1006.22
2023-03-18T02:38:45.517Z,1006.19
2023-03-18T02:39:45.393Z,1006.18
2023-03-18T02:40:45.386Z,1006.24
2023-03-18T02:41:45.368Z,1006.23
2023-03-18T02:42:45.405Z,1006.25
2023-03-18T02:43:45.388Z,1006.35
2023-03-18T02:44:45.341Z,1006.28
2023-03-18T02:45:45.421Z,1006.32
2023-03-18T02:46:45.345Z,1006.37
2023-03-18T02:47:45.376Z,1006.34
2023-03-18T02:48:45.335Z,1006.36
2023-03-18T02:49:45.291Z,1006.33
2023-03-18T02:50:45.299Z,1006.36
2023-03-18T02:51:45.270Z,1006.31
2023-03-18T02:52:45.284Z,1006.36
2023-03-18T02:53:45.318Z,1006.41
2023-03-18T02:54:45.227Z,1006.38
2023-03-18T02:55:45.216Z,1006.43
2023-03-18T02:56:45.192Z,1006.46
2023-03-18T02:57:45.169Z,1006.47
2023-03-18T02:58:45.132Z,1006.44
2023-03-18T02:59:45.160Z,1006.43
2023-03-18T03:00:45.137Z,1006.45
2023-03-18T03:01:45.196Z,1006.53
2023-03-18T03:02:45.344Z,1006.55
2023-03-18T03:03:45.208Z,1006.56
2023-03-18T03:04:45.092Z,1006.54
2023-03-18T03:05:45.082Z,1006.51
2023-03-18T03:06:45.040Z,1006.60
2023-03-18T03:07:45.042Z,1006.65
2023-03-18T03:08:45.050Z,1006.57
2023-03-18T03:09:45.038Z,1006.60
2023-03-18T03:10:44.991Z,1006.62
2023-03-18T03:11:45.035Z,1006.63
2023-03-18T03:12:44.960Z,1006.66
2023-03-18T03:13:44.968Z,1006.68
2023-03-18T03:14:44.930Z,1006.63
2023-03-18T03:15:44.986Z,1006.68
2023-03-18T03:16:44.908Z,1006.64
2023-03-18T03:17:44.940Z,1006.66
2023-03-18T03:19:13.567Z,1006.63
2023-03-18T03:19:44.892Z,1006.61
2023-03-18T03:20:44.911Z,1006.65
2023-03-18T03:21:44.875Z,1006.71
2023-03-18T03:22:44.846Z,1006.68
2023-03-18T03:23:44.878Z,1006.64
2023-03-18T03:24:44.807Z,1006.61
2023-03-18T03:25:44.810Z,1006.63
2023-03-18T03:26:44.826Z,1006.69
2023-03-18T03:27:44.802Z,1006.68
2023-03-18T03:28:44.787Z,1006.68
2023-03-18T03:29:44.764Z,1006.68
2023-03-18T03:30:44.835Z,1006.67
2023-03-18T03:31:44.767Z,1006.68
2023-03-18T03:32:44.764Z,1006.71
2023-03-18T03:33:44.714Z,1006.65
2023-03-18T03:34:44.732Z,1006.67
2023-03-18T03:35:44.742Z,1006.69
2023-03-18T03:36:44.685Z,1006.69
2023-03-18T03:37:44.664Z,1006.71
2023-03-18T03:38:44.660Z,1006.69
2023-03-18T03:39:44.635Z,1006.71
2023-03-18T03:40:44.609Z,1006.71
2023-03-18T03:41:44.661Z,1006.69
2023-03-18T03:42:44.611Z,1006.72
2023-03-18T03:43:44.575Z,1006.73
2023-03-18T03:44:44.584Z,1006.80
2023-03-18T03:45:44.592Z,1006.75
2023-03-18T03:46:44.577Z,1006.82
2023-03-18T03:47:44.495Z,1006.81
2023-03-18T03:48:44.531Z,1006.80
2023-03-18T03:49:44.513Z,1006.79
2023-03-18T03:50:44.500Z,1006.79
2023-03-18T03:51:44.485Z,1006.81
2023-03-18T03:52:44.479Z,1006.83
2023-03-18T03:53:44.461Z,1006.85
2023-03-18T03:54:44.425Z,1006.90
2023-03-18T03:55:44.416Z,1006.91
2023-03-18T03:56:44.412Z,1006.88
2023-03-18T03:57:44.404Z,1006.89
2023-03-18T03:58:44.403Z,1006.86
2023-03-18T03:59:44.380Z,1006.89
2023-03-18T04:00:44.378Z,1006.94
2023-03-18T04:01:44.423Z,1006.94
2023-03-18T04:02:44.389Z,1006.94
2023-03-18T04:03:44.455Z,1006.97
2023-03-18T04:04:44.327Z,1006.92
2023-03-18T04:05:44.299Z,1006.94
2023-03-18T04:06:44.262Z,1006.95
2023-03-18T04:07:44.264Z,1006.97
2023-03-18T04:08:44.266Z,1006.96
2023-03-18T04:09:44.210Z,1006.96
2023-03-18T04:10:44.234Z,1006.95
2023-03-18T04:11:44.271Z,1006.92
2023-03-18T04:12:44.200Z,1006.96
2023-03-18T04:13:44.164Z,1006.98
2023-03-18T04:14:44.168Z,1006.98
2023-03-18T04:15:44.187Z,1006.96
2023-03-18T04:16:44.186Z,1006.98
2023-03-18T04:17:44.134Z,1006.93
2023-03-18T04:18:44.162Z,1006.97
2023-03-18T04:19:44.110Z,1007.01
2023-03-18T04:20:44.078Z,1007.04
2023-03-18T04:21:44.117Z,1007.05
2023-03-18T04:22:44.083Z,1007.08
2023-03-18T04:23:44.032Z,1007.11
2023-03-18T04:24:44.027Z,1007.19
2023-03-18T04:25:44.045Z,1007.12
2023-03-18T04:26:44.036Z,1007.25
2023-03-18T04:27:43.979Z,1007.11
2023-03-18T04:28:43.977Z,1007.23
2023-03-18T04:29:43.981Z,1007.19
2023-03-18T04:30:43.988Z,1007.18
2023-03-18T04:31:43.964Z,1007.13
2023-03-18T04:32:44.035Z,1007.16
2023-03-18T04:33:43.919Z,1007.21
2023-03-18T04:34:43.924Z,1007.26
2023-03-18T04:35:43.911Z,1007.24
2023-03-18T04:36:43.865Z,1007.29
2023-03-18T04:37:43.892Z,1007.23
2023-03-18T04:38:43.843Z,1007.26
2023-03-18T04:39:43.846Z,1007.22
2023-03-18T04:40:43.819Z,1007.25
2023-03-18T04:41:43.800Z,1007.31
2023-03-18T04:42:43.792Z,1007.34
2023-03-18T04:43:43.817Z,1007.28
2023-03-18T04:44:43.772Z,1007.29
2023-03-18T04:45:43.781Z,1007.29
2023-03-18T04:46:43.777Z,1007.38
2023-03-18T04:47:43.717Z,1007.34
2023-03-18T04:48:43.758Z,1007.35
2023-03-18T04:49:43.689Z,1007.30
2023-03-18T04:50:43.698Z,1007.28
2023-03-18T04:51:43.727Z,1007.30
2023-03-18T04:52:43.674Z,1007.36
2023-03-18T04:53:43.645Z,1007.33
2023-03-18T04:54:43.685Z,1007.33
2023-03-18T04:55:43.635Z,1007.29
2023-03-18T04:56:43.621Z,1007.36
2023-03-18T04:57:43.580Z,1007.38
2023-03-18T04:58:43.579Z,1007.44
2023-03-18T04:59:43.588Z,1007.41
2023-03-18T05:00:43.587Z,1007.41
2023-03-18T05:01:43.540Z,1007.41
2023-03-18T05:02:43.556Z,1007.38
2023-03-18T05:03:43.637Z,1007.40
2023-03-18T05:04:43.529Z,1007.38
2023-03-18T05:05:43.478Z,1007.39
2023-03-18T05:06:43.506Z,1007.43
2023-03-18T05:07:43.464Z,1007.42
2023-03-18T05:08:43.457Z,1007.39
2023-03-18T05:09:43.444Z,1007.39
2023-03-18T05:10:43.456Z,1007.40
2023-03-18T05:11:43.436Z,1007.45
2023-03-18T05:12:43.401Z,1007.40
2023-03-18T05:13:43.378Z,1007.46
2023-03-18T05:14:43.403Z,1007.45
2023-03-18T05:15:43.375Z,1007.37
2023-03-18T05:16:43.501Z,1007.36
2023-03-18T05:17:43.337Z,1007.33
2023-03-18T05:18:43.337Z,1007.36
2023-03-18T05:19:43.323Z,1007.44
2023-03-18T05:20:43.307Z,1007.44
2023-03-18T05:21:43.312Z,1007.49
2023-03-18T05:22:43.296Z,1007.47
2023-03-18T05:23:43.244Z,1007.43
2023-03-18T05:24:43.272Z,1007.43
2023-03-18T05:25:43.216Z,1007.45
2023-03-18T05:26:43.217Z,1007.47
2023-03-18T05:27:43.250Z,1007.47
2023-03-18T05:28:43.196Z,1007.47
2023-03-18T05:29:43.241Z,1007.43
2023-03-18T05:30:43.192Z,1007.49
2023-03-18T05:31:43.187Z,1007.50
2023-03-18T05:32:43.197Z,1007.49
2023-03-18T05:33:43.143Z,1007.45
2023-03-18T05:34:43.114Z,1007.45
2023-03-18T05:35:43.116Z,1007.46
2023-03-18T05:36:43.089Z,1007.42
2023-03-18T05:37:43.081Z,1007.46
2023-03-18T05:38:43.095Z,1007.46
2023-03-18T05:39:50.152Z,1007.55
2023-03-18T05:40:50.622Z,1007.52
2023-03-18T05:41:43.003Z,1007.56
2023-03-18T05:42:55.274Z,1007.56
2023-03-18T05:43:44.009Z,1007.55
2023-03-18T05:44:42.983Z,1007.50
2023-03-18T05:45:43.038Z,1007.61
2023-03-18T05:46:42.995Z,1007.64
2023-03-18T05:47:42.921Z,1007.62
2023-03-18T05:48:42.988Z,1007.67
2023-03-18T05:49:42.976Z,1007.65
2023-03-18T05:50:42.898Z,1007.64
2023-03-18T05:51:43.018Z,1007.63
2023-03-18T05:52:42.869Z,1007.62
2023-03-18T05:53:42.880Z,1007.65
2023-03-18T05:54:42.876Z,1007.71
2023-03-18T05:55:42.819Z,1007.72
2023-03-18T05:56:42.870Z,1007.69
2023-03-18T05:57:42.791Z,1007.72
2023-03-18T05:58:42.841Z,1007.74
2023-03-18T05:59:42.794Z,1007.79
2023-03-18T06:00:42.774Z,1007.75
2023-03-18T06:01:42.799Z,1007.75
2023-03-18T06:02:42.763Z,1007.77
2023-03-18T06:03:42.812Z,1007.81
2023-03-18T06:04:42.730Z,1007.75
2023-03-18T06:05:42.725Z,1007.81
2023-03-18T06:06:42.697Z,1007.79
2023-03-18T06:07:42.698Z,1007.85
2023-03-18T06:08:42.684Z,1007.80
2023-03-18T06:09:42.693Z,1007.88
2023-03-18T06:10:42.684Z,1007.88
2023-03-18T06:11:42.647Z,1007.86
2023-03-18T06:12:42.661Z,1007.87
2023-03-18T06:13:42.638Z,1007.84
2023-03-18T06:14:42.685Z,1007.85
2023-03-18T06:15:42.568Z,1007.93
2023-03-18T06:16:42.742Z,1007.92
2023-03-18T06:17:42.540Z,1007.86
2023-03-18T06:18:42.575Z,1007.83
2023-03-18T06:19:42.531Z,1007.87
2023-03-18T06:20:42.513Z,1007.88
2023-03-18T06:21:42.518Z,1007.80
2023-03-18T06:22:42.518Z,1007.87
2023-03-18T06:23:42.465Z,1007.82
2023-03-18T06:24:42.496Z,1007.81
2023-03-18T06:25:42.494Z,1007.82
2023-03-18T06:26:50.030Z,1007.79
2023-03-18T06:27:44.106Z,1007.84
2023-03-18T06:28:42.436Z,1007.81
2023-03-18T06:29:42.406Z,1007.78
2023-03-18T06:30:42.461Z,1007.76
2023-03-18T06:31:42.412Z,1007.81
2023-03-18T06:32:42.418Z,1007.79
2023-03-18T06:33:42.365Z,1007.81
2023-03-18T06:34:42.372Z,1007.81
2023-03-18T06:35:42.370Z,1007.87
2023-03-18T06:36:42.341Z,1007.86
2023-03-18T06:37:42.282Z,1007.88
2023-03-18T06:38:42.315Z,1007.89
2023-03-18T06:39:42.287Z,1008.01
2023-03-18T06:40:42.259Z,1007.96
2023-03-18T06:41:42.386Z,1007.93
2023-03-18T06:42:42.248Z,1007.96
2023-03-18T06:43:42.204Z,1007.93
2023-03-18T06:44:42.251Z,1007.93
2023-03-18T06:45:42.198Z,1007.87
2023-03-18T06:46:43.875Z,1007.90
2023-03-18T06:47:42.203Z,1007.90
2023-03-18T06:48:42.144Z,1007.90
2023-03-18T06:49:42.115Z,1007.92
2023-03-18T06:50:42.157Z,1007.93
2023-03-18T06:51:42.120Z,1007.93
2023-03-18T06:52:42.146Z,1007.95
2023-03-18T06:53:42.140Z,1007.98
2023-03-18T06:54:42.100Z,1007.98
2023-03-18T06:55:42.047Z,1008.02
2023-03-18T06:56:42.077Z,1008.01
2023-03-18T06:57:42.071Z,1008.03
2023-03-18T06:58:42.059Z,1007.98
2023-03-18T06:59:42.010Z,1007.98
2023-03-18T07:00:42.055Z,1008.01
2023-03-18T07:01:41.995Z,1008.01
2023-03-18T07:02:42.007Z,1008.04
2023-03-18T07:03:42.011Z,1007.99
2023-03-18T07:04:41.991Z,1008.04
2023-03-18T07:05:41.948Z,1008.05
2023-03-18T07:06:41.898Z,1008.00
2023-03-18T07:07:41.893Z,1008.01
2023-03-18T07:08:41.899Z,1008.06
2023-03-18T07:09:41.908Z,1008.01
2023-03-18T07:10:41.851Z,1008.02
2023-03-18T07:11:41.876Z,1008.02
2023-03-18T07:12:41.885Z,1008.08
2023-03-18T07:13:41.837Z,1008.07
2023-03-18T07:14:41.868Z,1008.08
2023-03-18T07:15:41.873Z,1008.12
2023-03-18T07:16:41.765Z,1008.11
2023-03-18T07:17:41.794Z,1008.11
2023-03-18T07:18:41.761Z,1008.08
2023-03-18T07:19:41.842Z,1008.06
2023-03-18T07:20:41.736Z,1008.08
2023-03-18T07:21:41.744Z,1008.14
2023-03-18T07:22:41.705Z,1008.10
2023-03-18T07:23:41.721Z,1008.15
2023-03-18T07:24:41.659Z,1008.18
2023-03-18T07:25:41.764Z,1008.10
2023-03-18T07:26:41.690Z,1008.17
2023-03-18T07:27:41.675Z,1008.19
2023-03-18T07:28:41.609Z,1008.21
2023-03-18T07:29:41.597Z,1008.18
2023-03-18T07:30:41.624Z,1008.29
2023-03-18T07:31:41.726Z,1008.29
2023-03-18T07:32:41.600Z,1008.25
2023-03-18T07:33:41.569Z,1008.29
2023-03-18T07:34:41.540Z,1008.27
2023-03-18T07:35:41.593Z,1008.31
2023-03-18T07:36:41.554Z,1008.34
2023-03-18T07:37:41.539Z,1008.25
2023-03-18T07:38:41.485Z,1008.32
2023-03-18T07:39:41.501Z,1008.27
2023-03-18T07:40:41.498Z,1008.26
2023-03-18T07:41:41.474Z,1008.28
2023-03-18T07:42:41.463Z,1008.26
2023-03-18T07:43:41.470Z,1008.28
2023-03-18T07:44:41.499Z,1008.32
2023-03-18T07:45:41.452Z,1008.34
2023-03-18T07:46:41.443Z,1008.39
2023-03-18T07:47:41.393Z,1008.39
2023-03-18T07:48:41.388Z,1008.29
2023-03-18T07:49:41.344Z,1008.37
2023-03-18T07:50:41.321Z,1008.39
2023-03-18T07:51:41.313Z,1008.38
2023-03-18T07:52:41.362Z,1008.45
2023-03-18T07:53:41.696Z,1008.43
2023-03-18T07:54:41.322Z,1008.42
2023-03-18T07:55:41.273Z,1008.46
2023-03-18T07:56:41.288Z,1008.47
2023-03-18T07:57:41.281Z,1008.47
2023-03-18T07:58:41.214Z,1008.52
2023-03-18T07:59:41.224Z,1008.44
2023-03-18T08:00:41.220Z,1008.40
2023-03-18T08:01:41.238Z,1008.42
2023-03-18T08:02:41.214Z,1008.46
2023-03-18T08:03:41.181Z,1008.50
2023-03-18T08:04:41.183Z,1008.49
2023-03-18T08:05:41.143Z,1008.47
2023-03-18T08:06:41.128Z,1008.47
2023-03-18T08:07:41.109Z,1008.51
2023-03-18T08:08:41.129Z,1008.56
2023-03-18T08:09:41.109Z,1008.53
2023-03-18T08:10:41.060Z,1008.51
2023-03-18T08:11:41.116Z,1008.61
2023-03-18T08:12:52.040Z,1008.55
2023-03-18T08:13:42.049Z,1008.57
2023-03-18T08:14:41.028Z,1008.60
2023-03-18T08:15:41.038Z,1008.60
2023-03-18T08:16:41.082Z,1008.62
2023-03-18T08:17:40.982Z,1008.64
2023-03-18T08:18:40.976Z,1008.67
2023-03-18T08:19:40.976Z,1008.68
2023-03-18T08:20:40.942Z,1008.68
2023-03-18T08:21:40.944Z,1008.67
2023-03-18T08:22:40.920Z,1008.68
2023-03-18T08:23:40.926Z,1008.70
2023-03-18T08:24:41.066Z,1008.69
2023-03-18T08:25:40.879Z,1008.67
2023-03-18T08:26:40.896Z,1008.66
2023-03-18T08:27:40.896Z,1008.61
2023-03-18T08:28:40.847Z,1008.68
2023-03-18T08:29:40.818Z,1008.70
2023-03-18T08:30:40.815Z,1008.58
2023-03-18T08:31:40.858Z,1008.63
2023-03-18T08:32:40.883Z,1008.61
2023-03-18T08:33:40.822Z,1008.69
2023-03-18T08:34:40.865Z,1008.66
2023-03-18T08:35:40.794Z,1008.64
2023-03-18T08:36:40.753Z,1008.65
2023-03-18T08:37:40.745Z,1008.69
2023-03-18T08:38:40.769Z,1008.69
2023-03-18T08:39:40.742Z,1008.71
2023-03-18T08:40:40.703Z,1008.70
2023-03-18T08:41:40.713Z,1008.72
2023-03-18T08:42:40.670Z,1008.72
2023-03-18T08:43:40.683Z,1008.80
2023-03-18T08:44:40.665Z,1008.73
2023-03-18T08:45:40.650Z,1008.76
2023-03-18T08:46:40.606Z,1008.77
2023-03-18T08:47:40.587Z,1008.82
2023-03-18T08:48:40.568Z,1008.83
2023-03-18T08:49:40.566Z,1008.79
2023-03-18T08:50:40.574Z,1008.78
2023-03-18T08:51:40.595Z,1008.77
2023-03-18T08:52:40.510Z,1008.75
2023-03-18T08:53:40.517Z,1008.71
2023-03-18T08:54:40.515Z,1008.73
2023-03-18T08:55:40.544Z,1008.80
2023-03-18T08:56:40.516Z,1008.78
2023-03-18T08:57:40.465Z,1008.78
2023-03-18T08:58:40.509Z,1008.79
2023-03-18T08:59:40.526Z,1008.79
2023-03-18T09:00:40.416Z,1008.77
2023-03-18T09:01:40.553Z,1008.73
2023-03-18T09:02:40.376Z,1008.77
2023-03-18T09:03:40.409Z,1008.72
2023-03-18T09:04:40.357Z,1008.66
2023-03-18T09:05:40.394Z,1008.74
2023-03-18T09:06:40.364Z,1008.72
2023-03-18T09:07:40.354Z,1008.79
2023-03-18T09:08:40.331Z,1008.75
2023-03-18T09:09:44.013Z,1008.73
2023-03-18T09:10:40.279Z,1008.74
2023-03-18T09:11:40.352Z,1008.76
2023-03-18T09:12:40.281Z,1008.77
2023-03-18T09:13:40.266Z,1008.79
2023-03-18T09:14:40.256Z,1008.74
2023-03-18T09:15:40.236Z,1008.75
2023-03-18T09:16:40.376Z,1008.77
2023-03-18T09:17:56.591Z,1008.70
2023-03-18T09:18:44.096Z,1008.70
2023-03-18T09:19:40.197Z,1008.68
2023-03-18T09:20:40.187Z,1008.60
2023-03-18T09:21:40.179Z,1008.61
2023-03-18T09:22:40.140Z,1008.61
2023-03-18T09:23:40.133Z,1008.65
2023-03-18T09:24:40.144Z,1008.66
2023-03-18T09:25:40.102Z,1008.69
2023-03-18T09:26:40.113Z,1008.65
2023-03-18T09:27:40.061Z,1008.71
2023-03-18T09:28:40.063Z,1008.66
2023-03-18T09:29:40.056Z,1008.60
2023-03-18T09:30:40.075Z,1008.61
2023-03-18T09:31:40.079Z,1008.63
2023-03-18T09:32:40.092Z,1008.60
2023-03-18T09:33:40.025Z,1008.64
2023-03-18T09:34:39.999Z,1008.62
2023-03-18T09:35:40.068Z,1008.66
2023-03-18T09:36:39.939Z,1008.66
2023-03-18T09:37:39.978Z,1008.68
2023-03-18T09:38:47.488Z,1008.67
2023-03-18T09:39:47.516Z,1008.65
2023-03-18T09:40:40.005Z,1008.66
2023-03-18T09:41:39.899Z,1008.63
2023-03-18T09:42:39.858Z,1008.63
2023-03-18T09:43:39.868Z,1008.66
2023-03-18T09:44:39.848Z,1008.64
2023-03-18T09:45:39.980Z,1008.70
2023-03-18T09:46:39.952Z,1008.66
2023-03-18T09:47:39.797Z,1008.61
2023-03-18T09:48:39.776Z,1008.64
2023-03-18T09:49:39.812Z,1008.62
2023-03-18T09:50:39.787Z,1008.62
2023-03-18T09:51:39.826Z,1008.59
2023-03-18T09:52:39.750Z,1008.60
2023-03-18T09:53:39.773Z,1008.56
2023-03-18T09:54:39.725Z,1008.59
2023-03-18T09:55:39.697Z,1008.57
2023-03-18T09:56:39.688Z,1008.62
2023-03-18T09:57:39.732Z,1008.64
2023-03-18T09:58:39.637Z,1008.64
2023-03-18T09:59:39.675Z,1008.65
2023-03-18T10:00:39.642Z,1008.55
2023-03-18T10:01:39.692Z,1008.56
2023-03-18T10:02:39.612Z,1008.62
2023-03-18T10:03:39.758Z,1008.61
2023-03-18T10:04:39.563Z,1008.55
2023-03-18T10:05:39.565Z,1008.60
2023-03-18T10:06:39.555Z,1008.61
2023-03-18T10:07:39.558Z,1008.62
2023-03-18T10:08:39.532Z,1008.64
2023-03-18T10:09:39.505Z,1008.57
2023-03-18T10:10:39.496Z,1008.61
2023-03-18T10:11:39.498Z,1008.65
2023-03-18T10:12:39.510Z,1008.66
2023-03-18T10:13:39.471Z,1008.72
2023-03-18T10:14:39.427Z,1008.67
2023-03-18T10:15:39.544Z,1008.68
2023-03-18T10:16:39.441Z,1008.64
2023-03-18T10:17:39.425Z,1008.65
2023-03-18T10:18:39.374Z,1008.57
2023-03-18T10:19:39.413Z,1008.57
2023-03-18T10:20:39.351Z,1008.60
2023-03-18T10:21:39.369Z,1008.61
2023-03-18T10:22:39.410Z,1008.56
2023-03-18T10:23:39.323Z,1008.54
2023-03-18T10:24:39.292Z,1008.55
2023-03-18T10:25:39.322Z,1008.53
2023-03-18T10:26:39.293Z,1008.44
2023-03-18T10:27:39.310Z,1008.51
2023-03-18T10:28:39.637Z,1008.52
2023-03-18T10:29:39.358Z,1008.57
2023-03-18T10:30:39.290Z,1008.57
2023-03-18T10:31:39.345Z,1008.60
2023-03-18T10:32:49.546Z,1008.56
2023-03-18T10:33:40.213Z,1008.57
2023-03-18T10:34:39.184Z,1008.58
2023-03-18T10:35:39.225Z,1008.55
2023-03-18T10:36:39.199Z,1008.59
2023-03-18T10:37:39.189Z,1008.56
2023-03-18T10:38:39.145Z,1008.61
2023-03-18T10:39:39.133Z,1008.58
2023-03-18T10:40:39.123Z,1008.58
2023-03-18T10:41:39.123Z,1008.57
2023-03-18T10:42:39.118Z,1008.64
2023-03-18T10:43:39.084Z,1008.57
2023-03-18T10:44:39.060Z,1008.56
2023-03-18T10:45:39.042Z,1008.57
2023-03-18T10:46:39.148Z,1008.58
2023-03-18T10:47:39.060Z,1008.53
2023-03-18T10:48:39.024Z,1008.56
2023-03-18T10:49:39.008Z,1008.56
2023-03-18T10:50:38.997Z,1008.57
2023-03-18T10:51:39.008Z,1008.55
2023-03-18T10:52:38.996Z,1008.52
2023-03-18T10:53:39.047Z,1008.56
2023-03-18T10:54:38.925Z,1008.62
2023-03-18T10:55:38.961Z,1008.62
2023-03-18T10:56:38.912Z,1008.51
2023-03-18T10:57:38.959Z,1008.62
2023-03-18T10:58:38.900Z,1008.55
2023-03-18T10:59:38.853Z,1008.60
2023-03-18T11:00:38.872Z,1008.61
2023-03-18T11:01:38.923Z,1008.54
2023-03-18T11:02:39.020Z,1008.52
2023-03-18T11:03:38.831Z,1008.55
2023-03-18T11:04:38.811Z,1008.51
2023-03-18T11:05:38.819Z,1008.56
2023-03-18T11:06:38.763Z,1008.55
2023-03-18T11:07:39.522Z,1008.52
2023-03-18T11:08:38.766Z,1008.55
2023-03-18T11:09:38.739Z,1008.52
2023-03-18T11:10:38.698Z,1008.52
2023-03-18T11:11:38.726Z,1008.51
2023-03-18T11:12:38.706Z,1008.53
2023-03-18T11:13:38.698Z,1008.53
2023-03-18T11:14:38.678Z,1008.54
2023-03-18T11:15:38.659Z,1008.55
2023-03-18T11:16:38.661Z,1008.47
2023-03-18T11:17:38.657Z,1008.54
2023-03-18T11:18:38.639Z,1008.57
2023-03-18T11:19:38.668Z,1008.54
2023-03-18T11:20:38.580Z,1008.57
2023-03-18T11:21:38.563Z,1008.58
2023-03-18T11:22:38.576Z,1008.64
2023-03-18T11:23:38.568Z,1008.65
2023-03-18T11:24:38.570Z,1008.64
2023-03-18T11:25:38.527Z,1008.65
2023-03-18T11:26:38.547Z,1008.61
2023-03-18T11:27:38.527Z,1008.60
2023-03-18T11:28:38.497Z,1008.57
2023-03-18T11:29:38.469Z,1008.60
2023-03-18T11:30:38.520Z,1008.57
2023-03-18T11:31:38.687Z,1008.62
2023-03-18T11:32:38.495Z,1008.58
2023-03-18T11:33:38.400Z,1008.60
2023-03-18T11:34:38.425Z,1008.59
2023-03-18T11:35:38.484Z,1008.59
2023-03-18T11:36:38.416Z,1008.53
2023-03-18T11:37:38.367Z,1008.54
2023-03-18T11:38:38.377Z,1008.56
2023-03-18T11:39:38.367Z,1008.55
2023-03-18T11:40:38.318Z,1008.55
2023-03-18T11:41:38.355Z,1008.54
2023-03-18T11:42:38.326Z,1008.53
2023-03-18T11:43:38.329Z,1008.58
2023-03-18T11:44:38.264Z,1008.56
2023-03-18T11:45:38.244Z,1008.57
2023-03-18T11:46:38.368Z,1008.58
2023-03-18T11:47:38.232Z,1008.60
2023-03-18T11:48:38.243Z,1008.54
2023-03-18T11:49:38.243Z,1008.56
2023-03-18T11:50:38.211Z,1008.54
2023-03-18T11:51:38.218Z,1008.51
2023-03-18T11:52:38.194Z,1008.53
2023-03-18T11:53:38.142Z,1008.57
2023-03-18T11:54:38.171Z,1008.51
2023-03-18T11:55:38.115Z,1008.52
2023-03-18T11:56:38.141Z,1008.48
2023-03-18T11:57:38.101Z,1008.47
2023-03-18T11:58:38.102Z,1008.38
2023-03-18T11:59:38.073Z,1008.53
2023-03-18T12:00:38.080Z,1008.40
2023-03-18T12:01:38.115Z,1008.38
2023-03-18T12:02:38.034Z,1008.40
2023-03-18T12:03:38.030Z,1008.42
2023-03-18T12:04:38.103Z,1008.36
2023-03-18T12:05:38.004Z,1008.39